地図

経路データ

SID SEASON NUMBER BASIN SUBBASIN NAME ISO_TIME NATURE LAT LON WMO_WIND WMO_PRES WMO_AGENCY TRACK_TYPE DIST2LAND LANDFALL IFLAG USA_AGENCY USA_ATCF_ID USA_LAT USA_LON USA_RECORD USA_STATUS USA_WIND USA_PRES USA_SSHS USA_R34_NE USA_R34_SE USA_R34_SW USA_R34_NW USA_R50_NE USA_R50_SE USA_R50_SW USA_R50_NW USA_R64_NE USA_R64_SE USA_R64_SW USA_R64_NW USA_POCI USA_ROCI USA_RMW USA_EYE TOKYO_LAT TOKYO_LON TOKYO_GRADE TOKYO_WIND TOKYO_PRES TOKYO_R50_DIR TOKYO_R50_LONG TOKYO_R50_SHORT TOKYO_R30_DIR TOKYO_R30_LONG TOKYO_R30_SHORT TOKYO_LAND CMA_LAT CMA_LON CMA_CAT CMA_WIND CMA_PRES HKO_LAT HKO_LON HKO_CAT HKO_WIND HKO_PRES NEWDELHI_LAT NEWDELHI_LON NEWDELHI_GRADE NEWDELHI_WIND NEWDELHI_PRES NEWDELHI_CI NEWDELHI_DP NEWDELHI_POCI REUNION_LAT REUNION_LON REUNION_TYPE REUNION_WIND REUNION_PRES REUNION_TNUM REUNION_CI REUNION_RMW REUNION_R34_NE REUNION_R34_SE REUNION_R34_SW REUNION_R34_NW REUNION_R50_NE REUNION_R50_SE REUNION_R50_SW REUNION_R50_NW REUNION_R64_NE REUNION_R64_SE REUNION_R64_SW REUNION_R64_NW BOM_LAT BOM_LON BOM_TYPE BOM_WIND BOM_PRES BOM_TNUM BOM_CI BOM_RMW BOM_R34_NE BOM_R34_SE BOM_R34_SW BOM_R34_NW BOM_R50_NE BOM_R50_SE BOM_R50_SW BOM_R50_NW BOM_R64_NE BOM_R64_SE BOM_R64_SW BOM_R64_NW BOM_ROCI BOM_POCI BOM_EYE BOM_POS_METHOD BOM_PRES_METHOD NADI_LAT NADI_LON NADI_CAT NADI_WIND NADI_PRES WELLINGTON_LAT WELLINGTON_LON WELLINGTON_WIND WELLINGTON_PRES DS824_LAT DS824_LON DS824_STAGE DS824_WIND DS824_PRES TD9636_LAT TD9636_LON TD9636_STAGE TD9636_WIND TD9636_PRES TD9635_LAT TD9635_LON TD9635_WIND TD9635_PRES TD9635_ROCI NEUMANN_LAT NEUMANN_LON NEUMANN_CLASS NEUMANN_WIND NEUMANN_PRES MLC_LAT MLC_LON MLC_CLASS MLC_WIND MLC_PRES USA_GUST BOM_GUST BOM_GUST_PER REUNION_GUST REUNION_GUST_PER USA_SEAHGT USA_SEARAD_NE USA_SEARAD_SE USA_SEARAD_SW USA_SEARAD_NW STORM_SPEED STORM_DIR
2015309N14067 2015 99 NI AS MEGH 2015-11-04 12:00:00 NR 14.0000 66.9000 main 741 741 O_____________ jtwc_io IO052015 14.0000 66.9000 DB 20 1007 -3 1010 190 40 5 266
2015309N14067 2015 99 NI AS MEGH 2015-11-04 15:00:00 NR 13.9851 66.6499 main 771 771 P_____________ IO052015 13.9851 66.6499 DB 22 1005 -3 1010 195 40 5 270
2015309N14067 2015 99 NI AS MEGH 2015-11-04 18:00:00 TS 14.0000 66.4000 main 791 791 O_____________ jtwc_io IO052015 14.0000 66.4000 TD 25 1004 -1 1010 200 40 5 278
2015309N14067 2015 99 NI AS MEGH 2015-11-04 21:00:00 TS 14.0574 66.1376 main 817 817 P_____________ IO052015 14.0574 66.1376 TD 27 1002 -1 1010 200 40 6 280
2015309N14067 2015 99 NI AS MEGH 2015-11-05 00:00:00 TS 14.1000 65.8400 25 1006 newdelhi main 848 848 O___O_________ jtwc_io IO052015 14.1000 65.8000 TD 30 1000 -1 1010 200 40 14.1000 66.0000 D 25 1006 1.50000 3 7 272
2015309N14067 2015 99 NI AS MEGH 2015-11-05 03:00:00 TS 14.0767 65.4149 25 1004 newdelhi main 889 889 P___O_________ IO052015 14.0651 65.3224 TD 32 998 -1 1010 200 40 14.1000 65.6000 D 25 1004 1.50000 4 10 267
2015309N14067 2015 99 NI AS MEGH 2015-11-05 06:00:00 TS 14.0429 64.8000 30 1002 newdelhi main 932 890 O___O_________ jtwc_io IO052015 14.0000 64.8000 TS 35 996 0 1010 200 40 14.1000 64.8000 DD 30 1002 2.00000 5 11 267
2015309N14067 2015 99 NI AS MEGH 2015-11-05 09:00:00 TS 14.0129 64.3169 main 890 865 P___P_________ IO052015 13.9574 64.3276 TS 35 996 0 1010 200 40 14.0684 64.3063 DD 32 1000 6 8 264
2015309N14067 2015 99 NI AS MEGH 2015-11-05 12:00:00 TS 13.9500 63.9500 35 998 newdelhi main 865 841 O___O_________ jtwc_io IO052015 13.9000 63.9000 TS 35 996 0 1010 200 40 14.0000 64.0000 CS 35 998 2.50000 7 7 257
2015309N14067 2015 99 NI AS MEGH 2015-11-05 15:00:00 TS 13.8537 63.6175 40 996 newdelhi main 841 826 P___O_________ IO052015 13.8074 63.5350 TS 37 994 0 1009 195 37 13.9000 63.7000 CS 40 996 2.50000 8 6 257
2015309N14067 2015 99 NI AS MEGH 2015-11-05 18:00:00 TS 13.8000 63.3000 45 994 newdelhi main 826 804 O___O_________ jtwc_io IO052015 13.7000 63.2000 TS 40 993 0 40 40 45 45 1009 190 35 13.9000 63.4000 CS 45 994 3.00000 10 7 257
2015309N14067 2015 99 NI AS MEGH 2015-11-05 21:00:00 TS 13.7000 62.9213 45 994 newdelhi main 804 785 P___O_________ IO052015 13.6000 62.8425 TS 40 993 0 40 40 45 45 1009 190 35 13.8000 63.0000 CS 45 994 3.00000 10 8 256
2015309N14067 2015 99 NI AS MEGH 2015-11-06 00:00:00 TS 13.6000 62.5000 45 994 newdelhi main 785 774 O___O_________ jtwc_io IO052015 13.5000 62.5000 TS 40 993 0 40 40 45 45 1009 190 35 13.7000 62.5000 CS 45 994 3.00000 10 7 250
2015309N14067 2015 99 NI AS MEGH 2015-11-06 03:00:00 TS 13.4500 62.1963 45 994 newdelhi main 783 773 P___O_________ IO052015 13.3999 62.1925 TS 42 991 0 45 45 45 50 1009 195 35 13.5000 62.2000 CS 45 994 3.00000 10 7 239
2015309N14067 2015 99 NI AS MEGH 2015-11-06 06:00:00 TS 13.2500 61.9000 45 994 newdelhi main 773 765 O___O_________ jtwc_io IO052015 13.3000 61.9000 TS 45 989 0 50 50 45 55 1009 200 35 13.2000 61.9000 CS 45 994 3.00000 10 7 244
2015309N14067 2015 99 NI AS MEGH 2015-11-06 09:00:00 TS 13.1500 61.5500 45 994 newdelhi main 772 728 P___O_________ IO052015 13.2000 61.6000 TS 45 989 0 52 47 45 55 1009 200 35 13.1000 61.5000 CS 45 994 3.00000 10 8 255
2015309N14067 2015 99 NI AS MEGH 2015-11-06 12:00:00 TS 13.0500 61.1500 45 994 newdelhi main 728 695 O___O_________ jtwc_io IO052015 13.1000 61.3000 TS 45 989 0 55 45 45 55 1009 200 35 13.0000 61.0000 CS 45 994 3.00000 10 7 252
2015309N14067 2015 99 NI AS MEGH 2015-11-06 15:00:00 TS 12.9462 60.9037 45 994 newdelhi main 695 673 P___O_________ IO052015 12.9924 61.0075 TS 45 989 0 45 37 37 45 1008 185 35 12.9000 60.8000 CS 45 994 3.00000 10 5 253
2015309N14067 2015 99 NI AS MEGH 2015-11-06 18:00:00 TS 12.9000 60.6500 45 994 newdelhi main 673 640 O___O_________ jtwc_io IO052015 12.9000 60.7000 TS 45 989 0 35 30 30 35 1008 170 35 12.9000 60.6000 CS 45 994 3.00000 10 5 256
2015309N14067 2015 99 NI AS MEGH 2015-11-06 21:00:00 TS 12.8212 60.3788 45 994 newdelhi main 640 608 P___O_________ IO052015 12.8425 60.3575 TS 50 985 0 42 35 35 42 1008 165 27 12.8000 60.4000 CS 45 994 3.00000 10 6 260
2015309N14067 2015 99 NI AS MEGH 2015-11-07 00:00:00 TS 12.8000 60.0500 45 994 newdelhi main 608 564 O___O_________ jtwc_io IO052015 12.8000 60.0000 TS 55 982 0 50 40 40 50 1008 160 20 12.8000 60.1000 CS 45 994 3.00000 10 7 266
2015309N14067 2015 99 NI AS MEGH 2015-11-07 03:00:00 TS 12.7674 59.6362 45 994 newdelhi main 554 521 P___O_________ IO052015 12.7349 59.6724 TS 60 978 0 45 40 37 45 1008 155 12 12.8000 59.6000 CS 45 994 3.00000 10 8 263
2015309N14067 2015 99 NI AS MEGH 2015-11-07 06:00:00 TS 12.7000 59.2500 50 992 newdelhi main 521 466 O___O_________ jtwc_io IO052015 12.7000 59.3000 TY 65 974 1 40 40 35 40 15 15 15 15 1008 150 5 12.7000 59.2000 SCS 50 992 3.00000 12 8 263
2015309N14067 2015 99 NI AS MEGH 2015-11-07 09:00:00 TS 12.6713 58.8113 55 990 newdelhi main 466 423 P___O_________ IO052015 12.7425 58.8226 TY 72 968 1 47 42 40 47 20 17 17 20 1008 160 5 12.6000 58.8000 SCS 55 990 3.50000 16 9 273
2015309N14067 2015 99 NI AS MEGH 2015-11-07 12:00:00 TS 12.7500 58.3500 60 988 newdelhi main 423 369 O___O_________ jtwc_io IO052015 12.8000 58.3000 TY 80 963 1 55 45 45 55 25 20 20 25 10 10 10 10 1009 170 5 12.7000 58.4000 SCS 60 988 3.50000 18 9 272
2015309N14067 2015 99 NI AS MEGH 2015-11-07 15:00:00 TS 12.7074 57.8575 65 984 newdelhi main 369 304 P___O_________ IO052015 12.8148 57.8150 TY 85 959 2 50 45 42 47 25 22 22 25 12 12 12 12 1008 165 10 12.6000 57.9000 VSCS 65 984 4.00000 22 10 270
2015309N14067 2015 99 NI AS MEGH 2015-11-07 18:00:00 TS 12.7500 57.3000 70 980 newdelhi main 304 239 O___O_________ jtwc_io IO052015 12.8000 57.3000 TY 90 956 2 45 45 40 40 25 25 25 25 15 15 15 15 1008 160 15 15 12.7000 57.3000 VSCS 70 980 4.00000 26 11 271
2015309N14067 2015 99 NI AS MEGH 2015-11-07 21:00:00 TS 12.7287 56.7075 80 976 newdelhi main 239 174 P___O_________ IO052015 12.7575 56.7150 TY 97 950 3 45 42 40 42 25 25 25 25 15 15 15 15 1008 160 11 12.7000 56.7000 VSCS 80 976 4.50000 32 12 268
2015309N14067 2015 99 NI AS MEGH 2015-11-08 00:00:00 TS 12.7000 56.1000 85 974 newdelhi main 174 109 O___O_________ jtwc_io IO052015 12.7000 56.1000 TY 105 944 3 45 40 40 45 25 25 25 25 15 15 15 15 1008 160 7 5 12.7000 56.1000 VSCS 85 974 4.50000 36 12 267
2015309N14067 2015 99 NI AS MEGH 2015-11-08 03:00:00 TS 12.6711 55.5075 90 968 newdelhi main 109 44 P___O_________ IO052015 12.6423 55.5150 TY 107 942 3 45 40 40 45 25 25 25 25 15 15 15 15 1008 160 8 12.7000 55.5000 ESCS 90 968 5.00000 40 12 268
2015309N14067 2015 99 NI AS MEGH 2015-11-08 06:00:00 TS 12.6500 54.9000 95 964 newdelhi main 44 10 O___O_________ jtwc_io IO052015 12.6000 54.9000 TY 110 941 3 45 40 40 45 25 25 25 25 15 15 15 15 1008 160 10 10 12.7000 54.9000 ESCS 95 964 5.00000 44 13 269
2015309N14067 2015 99 NI AS MEGH 2015-11-08 09:00:00 TS 12.6537 54.2076 95 964 newdelhi main 11 11 P___O_________ IO052015 12.6074 54.2152 TY 102 946 3 52 47 47 52 27 27 27 27 17 17 17 17 1008 145 10 12.7000 54.2000 ESCS 95 964 5.00000 44 14 270
2015309N14067 2015 99 NI AS MEGH 2015-11-08 12:00:00 TS 12.6500 53.5000 90 970 newdelhi main 11 0 O___O_________ jtwc_io IO052015 12.6000 53.5000 TY 95 952 2 60 55 55 60 30 30 30 30 20 20 20 20 1008 130 10 12.7000 53.5000 ESCS 90 970 5.00000 40 13 268
2015309N14067 2015 99 NI AS MEGH 2015-11-08 15:00:00 TS 12.6074 52.8462 90 970 newdelhi main 55 55 P___O_________ IO052015 12.5149 52.7924 TY 87 957 2 60 55 55 60 30 30 30 30 20 20 20 20 1009 135 12 12.7000 52.9000 ESCS 90 970 5.00000 40 12 261
2015309N14067 2015 99 NI AS MEGH 2015-11-08 18:00:00 TS 12.4500 52.2500 90 970 newdelhi main 108 74 O___O_________ jtwc_io IO052015 12.4000 52.1000 TY 80 963 1 60 55 55 60 30 30 30 30 20 20 20 20 1011 140 15 12.5000 52.4000 ESCS 90 970 5.00000 40 13 260
2015309N14067 2015 99 NI AS MEGH 2015-11-08 21:00:00 TS 12.3924 51.5712 90 970 newdelhi main 74 44 P___O_________ IO052015 12.2848 51.4425 TY 75 966 1 60 55 55 60 30 30 30 30 20 20 20 20 1011 140 15 12.5000 51.7000 ESCS 90 970 5.00000 40 13 261
2015309N14067 2015 99 NI AS MEGH 2015-11-09 00:00:00 TS 12.2500 50.9000 85 974 newdelhi main 44 33 O___O_________ jtwc_io IO052015 12.2000 50.8000 TY 70 970 1 60 55 55 60 30 30 30 30 20 20 20 20 1011 140 15 12.3000 51.0000 VSCS 85 974 4.50000 36 13 263
2015309N14067 2015 99 NI AS MEGH 2015-11-09 03:00:00 TS 12.2350 50.2100 80 976 newdelhi main 54 54 P___O_________ IO052015 12.1700 50.1200 TY 65 974 1 57 55 57 57 30 30 30 30 10 10 10 10 1011 130 15 12.3000 50.3000 VSCS 80 976 4.50000 32 13 270
2015309N14067 2015 99 NI AS MEGH 2015-11-09 06:00:00 TS 12.2500 49.5500 80 978 newdelhi main 89 79 O___O_________ jtwc_io IO052015 12.2000 49.5000 TS 60 978 0 55 55 60 55 30 30 30 30 1011 120 15 12.3000 49.6000 VSCS 80 978 4.50000 30 13 275
2015309N14067 2015 99 NI AS MEGH 2015-11-09 09:00:00 TS 12.3424 48.8950 75 980 newdelhi main 117 117 P___O_________ IO052015 12.2849 48.9901 TS 55 981 0 55 55 57 55 1010 120 15 12.4000 48.8000 VSCS 75 980 4.00000 28 12 279
2015309N14067 2015 99 NI AS MEGH 2015-11-09 12:00:00 TS 12.4500 48.3000 70 982 newdelhi main 145 139 O___O_________ jtwc_io IO052015 12.4000 48.6000 TS 50 985 0 55 55 55 55 1010 120 15 12.5000 48.0000 VSCS 70 982 4.00000 26 9 280
2015309N14067 2015 99 NI AS MEGH 2015-11-09 15:00:00 TS 12.4999 47.9600 65 986 newdelhi main 139 116 P___O_________ IO052015 12.4999 48.3199 TS 45 989 0 55 55 55 55 1010 120 17 12.5000 47.6000 VSCS 65 986 4.00000 22 7 283
2015309N14067 2015 99 NI AS MEGH 2015-11-09 18:00:00 TS 12.6000 47.6500 65 988 newdelhi main 116 95 O___O_________ jtwc_io IO052015 12.6000 48.1000 TS 40 993 0 55 55 55 55 1010 120 20 12.6000 47.2000 VSCS 65 988 4.00000 20 7 287
2015309N14067 2015 99 NI AS MEGH 2015-11-09 21:00:00 TS 12.6925 47.3250 60 990 newdelhi main 95 74 P___O_________ IO052015 12.6850 47.8499 TS 35 996 0 27 27 27 27 1010 120 20 12.7000 46.8000 SCS 60 990 3.50000 18 7 292
2015309N14067 2015 99 NI AS MEGH 2015-11-10 00:00:00 TS 12.8500 47.0000 50 996 newdelhi main 64 46 O___O_________ jtwc_io IO052015 12.8000 47.6000 TD 30 1000 -1 1010 120 20 12.9000 46.4000 SCS 50 996 3.00000 14 6 303
2015309N14067 2015 99 NI AS MEGH 2015-11-10 03:00:00 TS 13.0387 46.7713 40 998 newdelhi main 46 22 P___O_________ IO052015 12.9775 47.3425 TD 27 1002 -1 1010 120 30 13.1000 46.2000 CS 40 998 3.00000 12 6 316
2015309N14067 2015 99 NI AS MEGH 2015-11-10 06:00:00 TS 13.2500 46.6000 30 1003 newdelhi main 11 0 O___O_________ jtwc_io IO052015 13.2000 47.1000 TD 25 1004 -1 1010 120 40 13.3000 46.1000 DD 30 1003 2.00000 5 5 334
2015309N14067 2015 99 NI AS MEGH 2015-11-10 09:00:00 TS 13.4541 46.5591 main 0 0 P___P_________ IO052015 13.4450 46.8901 TD 22 1005 -1 1009 120 40 13.4631 46.2282 DD 27 1004 4 4 0
2015309N14067 2015 99 NI AS MEGH 2015-11-10 12:00:00 NR 13.6500 46.6000 25 1005 newdelhi main 0 O___O_________ jtwc_io IO052015 13.7000 46.7000 DB 20 1007 -3 1008 120 40 13.6000 46.5000 D 25 1005 1.50000 3 4 14

IBTrACS Databaseについて

本データベースは、米国NOAAが公開する1842年以降の世界の熱帯低気圧のベストトラックデータアーカイブInternational Best Track Archive for Climate Stewardship (IBTrACS)を、ウェブで閲覧しやすい形式に変換したものです。

最終更新日:2021-12-03